sensor_id;sensor_type;location;lat;lon;timestamp;P1;durP1;ratioP1;P2;durP2;ratioP2
7158;SDS011;63175;52.374;13.132;2023-04-24T00:02:01;3.67;;;3.47;;
7158;SDS011;63175;52.374;13.132;2023-04-24T00:04:28;3.57;;;3.30;;
7158;SDS011;63175;52.374;13.132;2023-04-24T00:06:58;4.30;;;3.87;;
7158;SDS011;63175;52.374;13.132;2023-04-24T00:09:25;4.40;;;4.00;;
7158;SDS011;63175;52.374;13.132;2023-04-24T00:11:52;3.70;;;3.50;;
7158;SDS011;63175;52.374;13.132;2023-04-24T00:14:19;4.93;;;4.47;;
7158;SDS011;63175;52.374;13.132;2023-04-24T00:16:46;4.03;;;3.50;;
7158;SDS011;63175;52.374;13.132;2023-04-24T00:19:13;4.03;;;3.63;;
7158;SDS011;63175;52.374;13.132;2023-04-24T00:21:39;3.30;;;3.00;;
7158;SDS011;63175;52.374;13.132;2023-04-24T00:24:08;3.50;;;3.23;;
7158;SDS011;63175;52.374;13.132;2023-04-24T00:26:35;3.30;;;3.00;;
7158;SDS011;63175;52.374;13.132;2023-04-24T00:29:02;3.57;;;3.37;;
7158;SDS011;63175;52.374;13.132;2023-04-24T00:31:29;4.20;;;3.90;;
7158;SDS011;63175;52.374;13.132;2023-04-24T00:33:55;3.47;;;3.27;;
7158;SDS011;63175;52.374;13.132;2023-04-24T00:36:22;3.77;;;3.47;;
7158;SDS011;63175;52.374;13.132;2023-04-24T00:38:50;3.73;;;3.40;;
7158;SDS011;63175;52.374;13.132;2023-04-24T00:41:18;4.07;;;3.77;;
7158;SDS011;63175;52.374;13.132;2023-04-24T00:43:45;4.60;;;4.20;;
7158;SDS011;63175;52.374;13.132;2023-04-24T00:46:12;4.80;;;4.30;;
7158;SDS011;63175;52.374;13.132;2023-04-24T00:48:40;4.10;;;3.77;;
7158;SDS011;63175;52.374;13.132;2023-04-24T00:51:07;3.73;;;3.43;;
7158;SDS011;63175;52.374;13.132;2023-04-24T00:53:34;4.20;;;3.90;;
7158;SDS011;63175;52.374;13.132;2023-04-24T00:56:01;4.30;;;3.90;;
7158;SDS011;63175;52.374;13.132;2023-04-24T00:58:30;3.60;;;3.40;;
7158;SDS011;63175;52.374;13.132;2023-04-24T01:00:57;3.90;;;3.60;;
7158;SDS011;63175;52.374;13.132;2023-04-24T01:03:26;4.57;;;4.17;;
7158;SDS011;63175;52.374;13.132;2023-04-24T01:05:55;4.47;;;4.07;;
7158;SDS011;63175;52.374;13.132;2023-04-24T01:08:22;3.73;;;3.50;;
7158;SDS011;63175;52.374;13.132;2023-04-24T01:10:50;3.90;;;3.60;;
7158;SDS011;63175;52.374;13.132;2023-04-24T01:13:18;5.53;;;5.03;;
7158;SDS011;63175;52.374;13.132;2023-04-24T01:15:47;3.87;;;3.57;;
7158;SDS011;63175;52.374;13.132;2023-04-24T01:18:14;4.90;;;4.60;;
7158;SDS011;63175;52.374;13.132;2023-04-24T01:20:41;4.43;;;4.13;;
7158;SDS011;63175;52.374;13.132;2023-04-24T01:23:13;4.80;;;4.27;;
7158;SDS011;63175;52.374;13.132;2023-04-24T01:25:40;4.33;;;4.03;;
7158;SDS011;63175;52.374;13.132;2023-04-24T01:28:07;4.97;;;4.47;;
7158;SDS011;63175;52.374;13.132;2023-04-24T01:30:33;4.67;;;4.30;;
7158;SDS011;63175;52.374;13.132;2023-04-24T01:33:00;4.87;;;4.57;;
7158;SDS011;63175;52.374;13.132;2023-04-24T01:35:27;4.90;;;4.23;;
7158;SDS011;63175;52.374;13.132;2023-04-24T01:37:54;4.27;;;3.97;;
7158;SDS011;63175;52.374;13.132;2023-04-24T01:40:22;4.53;;;4.10;;
7158;SDS011;63175;52.374;13.132;2023-04-24T01:42:49;5.20;;;4.37;;
7158;SDS011;63175;52.374;13.132;2023-04-24T01:45:17;5.30;;;4.80;;
7158;SDS011;63175;52.374;13.132;2023-04-24T01:47:44;5.30;;;4.83;;
7158;SDS011;63175;52.374;13.132;2023-04-24T01:50:11;4.80;;;4.50;;
7158;SDS011;63175;52.374;13.132;2023-04-24T01:52:38;4.80;;;4.50;;
7158;SDS011;63175;52.374;13.132;2023-04-24T01:55:06;4.50;;;4.20;;
7158;SDS011;63175;52.374;13.132;2023-04-24T01:57:34;4.53;;;4.20;;
7158;SDS011;63175;52.374;13.132;2023-04-24T02:00:02;3.87;;;3.60;;
7158;SDS011;63175;52.374;13.132;2023-04-24T02:02:31;4.47;;;4.17;;
7158;SDS011;63175;52.374;13.132;2023-04-24T02:04:58;3.93;;;3.53;;
7158;SDS011;63175;52.374;13.132;2023-04-24T02:07:25;3.83;;;3.53;;
7158;SDS011;63175;52.374;13.132;2023-04-24T02:09:52;4.37;;;3.97;;
7158;SDS011;63175;52.374;13.132;2023-04-24T02:12:20;4.60;;;4.23;;
7158;SDS011;63175;52.374;13.132;2023-04-24T02:14:48;3.87;;;3.67;;
7158;SDS011;63175;52.374;13.132;2023-04-24T02:17:15;3.73;;;3.53;;
7158;SDS011;63175;52.374;13.132;2023-04-24T02:19:44;4.37;;;4.00;;
7158;SDS011;63175;52.374;13.132;2023-04-24T02:22:11;4.30;;;4.00;;
7158;SDS011;63175;52.374;13.132;2023-04-24T02:24:38;4.23;;;3.97;;
7158;SDS011;63175;52.374;13.132;2023-04-24T02:27:05;3.33;;;3.13;;
7158;SDS011;63175;52.374;13.132;2023-04-24T02:29:32;4.23;;;3.93;;
7158;SDS011;63175;52.374;13.132;2023-04-24T02:32:00;4.33;;;4.03;;
7158;SDS011;63175;52.374;13.132;2023-04-24T02:34:27;4.37;;;4.07;;
7158;SDS011;63175;52.374;13.132;2023-04-24T02:36:54;5.00;;;4.60;;
7158;SDS011;63175;52.374;13.132;2023-04-24T02:39:21;3.83;;;3.53;;
7158;SDS011;63175;52.374;13.132;2023-04-24T02:41:48;4.90;;;4.53;;
7158;SDS011;63175;52.374;13.132;2023-04-24T02:44:15;6.03;;;4.47;;
7158;SDS011;63175;52.374;13.132;2023-04-24T02:46:42;9.43;;;4.60;;
7158;SDS011;63175;52.374;13.132;2023-04-24T02:49:11;5.03;;;4.57;;
7158;SDS011;63175;52.374;13.132;2023-04-24T02:51:37;4.80;;;4.43;;
7158;SDS011;63175;52.374;13.132;2023-04-24T02:54:06;4.37;;;4.07;;
7158;SDS011;63175;52.374;13.132;2023-04-24T02:56:33;5.10;;;4.60;;
7158;SDS011;63175;52.374;13.132;2023-04-24T02:59:00;4.27;;;3.97;;
7158;SDS011;63175;52.374;13.132;2023-04-24T03:01:27;4.50;;;4.20;;
7158;SDS011;63175;52.374;13.132;2023-04-24T03:03:53;3.97;;;3.67;;
7158;SDS011;63175;52.374;13.132;2023-04-24T03:06:22;5.70;;;4.67;;
7158;SDS011;63175;52.374;13.132;2023-04-24T03:08:48;5.57;;;4.07;;
7158;SDS011;63175;52.374;13.132;2023-04-24T03:11:15;4.70;;;4.30;;
7158;SDS011;63175;52.374;13.132;2023-04-24T03:13:42;4.53;;;4.23;;
7158;SDS011;63175;52.374;13.132;2023-04-24T03:16:09;5.90;;;4.80;;
7158;SDS011;63175;52.374;13.132;2023-04-24T03:18:36;5.10;;;4.60;;
7158;SDS011;63175;52.374;13.132;2023-04-24T03:21:03;4.77;;;4.03;;
7158;SDS011;63175;52.374;13.132;2023-04-24T03:23:31;4.07;;;3.80;;
7158;SDS011;63175;52.374;13.132;2023-04-24T03:25:58;7.00;;;4.60;;
7158;SDS011;63175;52.374;13.132;2023-04-24T03:28:25;4.67;;;4.27;;
7158;SDS011;63175;52.374;13.132;2023-04-24T03:30:52;4.30;;;4.00;;
7158;SDS011;63175;52.374;13.132;2023-04-24T03:33:19;3.97;;;3.70;;
7158;SDS011;63175;52.374;13.132;2023-04-24T03:35:45;5.10;;;4.70;;
7158;SDS011;63175;52.374;13.132;2023-04-24T03:38:12;4.07;;;3.87;;
7158;SDS011;63175;52.374;13.132;2023-04-24T03:40:40;4.73;;;4.33;;
7158;SDS011;63175;52.374;13.132;2023-04-24T03:43:07;4.70;;;4.40;;
7158;SDS011;63175;52.374;13.132;2023-04-24T03:45:34;3.73;;;3.53;;
7158;SDS011;63175;52.374;13.132;2023-04-24T03:48:01;3.97;;;3.67;;
7158;SDS011;63175;52.374;13.132;2023-04-24T03:50:27;4.30;;;4.00;;
7158;SDS011;63175;52.374;13.132;2023-04-24T03:52:55;4.20;;;3.90;;
7158;SDS011;63175;52.374;13.132;2023-04-24T03:55:22;4.00;;;3.80;;
7158;SDS011;63175;52.374;13.132;2023-04-24T03:57:50;4.30;;;3.97;;
7158;SDS011;63175;52.374;13.132;2023-04-24T04:00:17;4.40;;;4.13;;
7158;SDS011;63175;52.374;13.132;2023-04-24T04:02:43;3.93;;;3.70;;
7158;SDS011;63175;52.374;13.132;2023-04-24T04:05:10;4.37;;;4.00;;
7158;SDS011;63175;52.374;13.132;2023-04-24T04:07:37;4.53;;;4.20;;
7158;SDS011;63175;52.374;13.132;2023-04-24T04:10:04;4.10;;;3.80;;
7158;SDS011;63175;52.374;13.132;2023-04-24T04:12:32;3.43;;;3.23;;
7158;SDS011;63175;52.374;13.132;2023-04-24T04:15:00;3.67;;;3.37;;
7158;SDS011;63175;52.374;13.132;2023-04-24T04:17:27;4.50;;;3.57;;
7158;SDS011;63175;52.374;13.132;2023-04-24T04:19:54;3.73;;;3.43;;
7158;SDS011;63175;52.374;13.132;2023-04-24T04:22:22;4.80;;;4.37;;
7158;SDS011;63175;52.374;13.132;2023-04-24T04:24:49;4.50;;;4.17;;
7158;SDS011;63175;52.374;13.132;2023-04-24T04:27:16;3.90;;;3.60;;
7158;SDS011;63175;52.374;13.132;2023-04-24T04:29:43;3.63;;;3.43;;
7158;SDS011;63175;52.374;13.132;2023-04-24T04:32:12;4.40;;;4.10;;
7158;SDS011;63175;52.374;13.132;2023-04-24T04:34:38;3.30;;;3.00;;
7158;SDS011;63175;52.374;13.132;2023-04-24T04:37:05;4.70;;;4.30;;
7158;SDS011;63175;52.374;13.132;2023-04-24T04:39:32;5.10;;;3.77;;
7158;SDS011;63175;52.374;13.132;2023-04-24T04:41:59;3.70;;;3.50;;
7158;SDS011;63175;52.374;13.132;2023-04-24T04:44:26;3.40;;;3.20;;
7158;SDS011;63175;52.374;13.132;2023-04-24T04:46:53;4.20;;;3.80;;
7158;SDS011;63175;52.374;13.132;2023-04-24T04:49:22;4.00;;;3.70;;
7158;SDS011;63175;52.374;13.132;2023-04-24T04:51:49;3.87;;;3.57;;
7158;SDS011;63175;52.374;13.132;2023-04-24T04:54:16;3.20;;;3.00;;
7158;SDS011;63175;52.374;13.132;2023-04-24T04:56:43;3.97;;;3.67;;
7158;SDS011;63175;52.374;13.132;2023-04-24T04:59:10;2.83;;;2.63;;
7158;SDS011;63175;52.374;13.132;2023-04-24T05:01:37;6.57;;;3.67;;
7158;SDS011;63175;52.374;13.132;2023-04-24T05:04:05;4.87;;;3.27;;
7158;SDS011;63175;52.374;13.132;2023-04-24T05:06:33;2.90;;;2.70;;
7158;SDS011;63175;52.374;13.132;2023-04-24T05:09:00;2.97;;;2.77;;
7158;SDS011;63175;52.374;13.132;2023-04-24T05:11:28;2.70;;;2.53;;
7158;SDS011;63175;52.374;13.132;2023-04-24T05:13:55;2.27;;;2.10;;
7158;SDS011;63175;52.374;13.132;2023-04-24T05:16:22;2.57;;;2.37;;
7158;SDS011;63175;52.374;13.132;2023-04-24T05:18:49;3.50;;;2.70;;
7158;SDS011;63175;52.374;13.132;2023-04-24T05:21:16;2.40;;;2.20;;
7158;SDS011;63175;52.374;13.132;2023-04-24T05:23:44;2.33;;;2.17;;
7158;SDS011;63175;52.374;13.132;2023-04-24T05:26:11;2.10;;;2.00;;
7158;SDS011;63175;52.374;13.132;2023-04-24T05:28:39;2.10;;;2.00;;
7158;SDS011;63175;52.374;13.132;2023-04-24T05:31:06;3.47;;;1.87;;
7158;SDS011;63175;52.374;13.132;2023-04-24T05:33:33;1.50;;;1.40;;
7158;SDS011;63175;52.374;13.132;2023-04-24T05:35:59;2.40;;;1.67;;
7158;SDS011;63175;52.374;13.132;2023-04-24T05:38:26;1.90;;;1.80;;
7158;SDS011;63175;52.374;13.132;2023-04-24T05:40:55;1.47;;;1.37;;
7158;SDS011;63175;52.374;13.132;2023-04-24T05:43:22;3.00;;;1.37;;
7158;SDS011;63175;52.374;13.132;2023-04-24T05:45:49;1.50;;;1.40;;
7158;SDS011;63175;52.374;13.132;2023-04-24T05:48:15;1.57;;;1.47;;
7158;SDS011;63175;52.374;13.132;2023-04-24T05:50:42;1.83;;;1.33;;
7158;SDS011;63175;52.374;13.132;2023-04-24T05:53:09;1.43;;;1.33;;
7158;SDS011;63175;52.374;13.132;2023-04-24T05:55:36;1.30;;;1.20;;
7158;SDS011;63175;52.374;13.132;2023-04-24T05:58:04;1.23;;;0.97;;
7158;SDS011;63175;52.374;13.132;2023-04-24T06:00:31;1.43;;;1.33;;
7158;SDS011;63175;52.374;13.132;2023-04-24T06:02:59;1.20;;;1.20;;
7158;SDS011;63175;52.374;13.132;2023-04-24T06:05:28;2.63;;;1.17;;
7158;SDS011;63175;52.374;13.132;2023-04-24T06:07:55;1.93;;;1.50;;
7158;SDS011;63175;52.374;13.132;2023-04-24T06:10:22;1.80;;;1.20;;
7158;SDS011;63175;52.374;13.132;2023-04-24T06:12:49;1.90;;;1.50;;
7158;SDS011;63175;52.374;13.132;2023-04-24T06:15:17;1.23;;;1.20;;
7158;SDS011;63175;52.374;13.132;2023-04-24T06:17:44;2.23;;;1.10;;
7158;SDS011;63175;52.374;13.132;2023-04-24T06:20:11;1.40;;;1.30;;
7158;SDS011;63175;52.374;13.132;2023-04-24T06:22:38;1.87;;;1.17;;
7158;SDS011;63175;52.374;13.132;2023-04-24T06:25:05;1.10;;;1.10;;
7158;SDS011;63175;52.374;13.132;2023-04-24T06:27:33;1.20;;;1.20;;
7158;SDS011;63175;52.374;13.132;2023-04-24T06:30:00;1.20;;;1.10;;
7158;SDS011;63175;52.374;13.132;2023-04-24T06:32:28;1.13;;;0.87;;
7158;SDS011;63175;52.374;13.132;2023-04-24T06:34:55;2.30;;;0.97;;
7158;SDS011;63175;52.374;13.132;2023-04-24T06:37:22;3.43;;;1.10;;
7158;SDS011;63175;52.374;13.132;2023-04-24T06:39:50;1.00;;;0.90;;
7158;SDS011;63175;52.374;13.132;2023-04-24T06:42:17;0.67;;;0.67;;
7158;SDS011;63175;52.374;13.132;2023-04-24T06:44:45;2.50;;;0.90;;
7158;SDS011;63175;52.374;13.132;2023-04-24T06:47:12;0.70;;;0.70;;
7158;SDS011;63175;52.374;13.132;2023-04-24T06:49:41;0.80;;;0.80;;
7158;SDS011;63175;52.374;13.132;2023-04-24T06:52:07;1.63;;;1.00;;
7158;SDS011;63175;52.374;13.132;2023-04-24T06:54:34;0.90;;;0.67;;
7158;SDS011;63175;52.374;13.132;2023-04-24T06:57:01;2.73;;;1.00;;
7158;SDS011;63175;52.374;13.132;2023-04-24T06:59:28;1.80;;;1.00;;
7158;SDS011;63175;52.374;13.132;2023-04-24T07:01:56;0.93;;;0.70;;
7158;SDS011;63175;52.374;13.132;2023-04-24T07:04:23;0.87;;;0.80;;
7158;SDS011;63175;52.374;13.132;2023-04-24T07:06:52;1.20;;;1.10;;
7158;SDS011;63175;52.374;13.132;2023-04-24T07:09:20;0.60;;;0.60;;
7158;SDS011;63175;52.374;13.132;2023-04-24T07:11:48;2.70;;;0.77;;
7158;SDS011;63175;52.374;13.132;2023-04-24T07:14:16;1.37;;;0.67;;
7158;SDS011;63175;52.374;13.132;2023-04-24T07:16:43;1.97;;;0.70;;
7158;SDS011;63175;52.374;13.132;2023-04-24T07:19:10;1.03;;;0.60;;
7158;SDS011;63175;52.374;13.132;2023-04-24T07:21:37;0.70;;;0.60;;
7158;SDS011;63175;52.374;13.132;2023-04-24T07:24:05;0.70;;;0.60;;
7158;SDS011;63175;52.374;13.132;2023-04-24T07:26:34;3.20;;;0.80;;
7158;SDS011;63175;52.374;13.132;2023-04-24T07:29:01;2.13;;;0.70;;
7158;SDS011;63175;52.374;13.132;2023-04-24T07:31:28;4.70;;;0.73;;
7158;SDS011;63175;52.374;13.132;2023-04-24T07:33:55;1.83;;;0.80;;
7158;SDS011;63175;52.374;13.132;2023-04-24T07:36:23;2.97;;;0.80;;
7158;SDS011;63175;52.374;13.132;2023-04-24T07:38:51;1.17;;;0.60;;
7158;SDS011;63175;52.374;13.132;2023-04-24T07:41:19;0.63;;;0.63;;
7158;SDS011;63175;52.374;13.132;2023-04-24T07:43:46;1.63;;;0.80;;
7158;SDS011;63175;52.374;13.132;2023-04-24T07:46:13;0.93;;;0.77;;
7158;SDS011;63175;52.374;13.132;2023-04-24T07:48:40;1.37;;;0.67;;
7158;SDS011;63175;52.374;13.132;2023-04-24T07:51:07;1.20;;;0.70;;
7158;SDS011;63175;52.374;13.132;2023-04-24T07:53:35;0.70;;;0.60;;
7158;SDS011;63175;52.374;13.132;2023-04-24T07:56:02;0.73;;;0.67;;
7158;SDS011;63175;52.374;13.132;2023-04-24T07:58:30;0.80;;;0.60;;
7158;SDS011;63175;52.374;13.132;2023-04-24T08:00:57;1.20;;;0.80;;
7158;SDS011;63175;52.374;13.132;2023-04-24T08:03:23;1.17;;;0.63;;
7158;SDS011;63175;52.374;13.132;2023-04-24T08:05:50;1.20;;;0.60;;
7158;SDS011;63175;52.374;13.132;2023-04-24T08:08:17;0.80;;;0.70;;
7158;SDS011;63175;52.374;13.132;2023-04-24T08:10:46;1.00;;;0.80;;
7158;SDS011;63175;52.374;13.132;2023-04-24T08:13:13;0.70;;;0.60;;
7158;SDS011;63175;52.374;13.132;2023-04-24T08:15:41;1.53;;;1.00;;
7158;SDS011;63175;52.374;13.132;2023-04-24T08:18:08;0.83;;;0.83;;
7158;SDS011;63175;52.374;13.132;2023-04-24T08:20:40;1.10;;;0.87;;
7158;SDS011;63175;52.374;13.132;2023-04-24T08:23:09;1.00;;;0.70;;
7158;SDS011;63175;52.374;13.132;2023-04-24T08:25:35;1.17;;;0.80;;
7158;SDS011;63175;52.374;13.132;2023-04-24T08:28:02;0.97;;;0.73;;
7158;SDS011;63175;52.374;13.132;2023-04-24T08:30:31;0.83;;;0.80;;
7158;SDS011;63175;52.374;13.132;2023-04-24T08:33:00;2.40;;;1.00;;
7158;SDS011;63175;52.374;13.132;2023-04-24T08:35:27;1.83;;;0.80;;
7158;SDS011;63175;52.374;13.132;2023-04-24T08:37:54;2.93;;;0.77;;
7158;SDS011;63175;52.374;13.132;2023-04-24T08:40:23;1.13;;;0.63;;
7158;SDS011;63175;52.374;13.132;2023-04-24T08:42:54;1.17;;;0.70;;
7158;SDS011;63175;52.374;13.132;2023-04-24T08:45:22;1.00;;;0.70;;
7158;SDS011;63175;52.374;13.132;2023-04-24T08:47:50;2.90;;;0.90;;
7158;SDS011;63175;52.374;13.132;2023-04-24T08:50:20;1.17;;;0.73;;
7158;SDS011;63175;52.374;13.132;2023-04-24T08:52:49;1.43;;;0.60;;
7158;SDS011;63175;52.374;13.132;2023-04-24T08:55:18;0.90;;;0.80;;
7158;SDS011;63175;52.374;13.132;2023-04-24T08:57:45;2.60;;;0.93;;
7158;SDS011;63175;52.374;13.132;2023-04-24T09:00:17;2.10;;;0.50;;
7158;SDS011;63175;52.374;13.132;2023-04-24T09:02:45;0.70;;;0.70;;
7158;SDS011;63175;52.374;13.132;2023-04-24T09:05:16;1.13;;;0.73;;
7158;SDS011;63175;52.374;13.132;2023-04-24T09:07:45;0.60;;;0.50;;
7158;SDS011;63175;52.374;13.132;2023-04-24T09:10:19;0.80;;;0.70;;
7158;SDS011;63175;52.374;13.132;2023-04-24T09:12:46;0.60;;;0.53;;
7158;SDS011;63175;52.374;13.132;2023-04-24T09:15:13;1.73;;;0.80;;
7158;SDS011;63175;52.374;13.132;2023-04-24T09:17:41;0.70;;;0.63;;
7158;SDS011;63175;52.374;13.132;2023-04-24T09:20:08;4.60;;;0.73;;
7158;SDS011;63175;52.374;13.132;2023-04-24T09:22:35;1.10;;;0.80;;
7158;SDS011;63175;52.374;13.132;2023-04-24T09:25:04;0.73;;;0.73;;
7158;SDS011;63175;52.374;13.132;2023-04-24T09:27:32;0.83;;;0.80;;
7158;SDS011;63175;52.374;13.132;2023-04-24T09:29:59;2.70;;;1.00;;
7158;SDS011;63175;52.374;13.132;2023-04-24T09:32:27;2.60;;;0.60;;
7158;SDS011;63175;52.374;13.132;2023-04-24T09:35:08;1.70;;;1.00;;
7158;SDS011;63175;52.374;13.132;2023-04-24T09:37:37;0.80;;;0.60;;
7158;SDS011;63175;52.374;13.132;2023-04-24T09:40:12;1.63;;;0.60;;
7158;SDS011;63175;52.374;13.132;2023-04-24T09:42:43;3.90;;;0.70;;
7158;SDS011;63175;52.374;13.132;2023-04-24T09:45:10;0.60;;;0.53;;
7158;SDS011;63175;52.374;13.132;2023-04-24T09:47:37;2.10;;;0.60;;
7158;SDS011;63175;52.374;13.132;2023-04-24T09:50:11;0.80;;;0.60;;
7158;SDS011;63175;52.374;13.132;2023-04-24T09:52:40;1.23;;;0.70;;
7158;SDS011;63175;52.374;13.132;2023-04-24T09:55:13;0.67;;;0.50;;
7158;SDS011;63175;52.374;13.132;2023-04-24T09:57:46;0.60;;;0.50;;
7158;SDS011;63175;52.374;13.132;2023-04-24T10:00:17;1.23;;;0.70;;
7158;SDS011;63175;52.374;13.132;2023-04-24T10:02:49;0.70;;;0.50;;
7158;SDS011;63175;52.374;13.132;2023-04-24T10:05:17;1.10;;;1.00;;
7158;SDS011;63175;52.374;13.132;2023-04-24T10:07:44;1.23;;;0.60;;
7158;SDS011;63175;52.374;13.132;2023-04-24T10:10:11;3.03;;;0.60;;
7158;SDS011;63175;52.374;13.132;2023-04-24T10:12:40;1.93;;;0.70;;
7158;SDS011;63175;52.374;13.132;2023-04-24T10:15:09;1.23;;;0.60;;
7158;SDS011;63175;52.374;13.132;2023-04-24T10:17:39;1.50;;;0.80;;
7158;SDS011;63175;52.374;13.132;2023-04-24T10:23:20;3.73;;;0.63;;
7158;SDS011;63175;52.374;13.132;2023-04-24T10:25:49;1.10;;;0.70;;
7158;SDS011;63175;52.374;13.132;2023-04-24T10:28:19;1.37;;;0.70;;
7158;SDS011;63175;52.374;13.132;2023-04-24T10:30:47;1.67;;;0.77;;
7158;SDS011;63175;52.374;13.132;2023-04-24T10:33:15;1.27;;;0.80;;
7158;SDS011;63175;52.374;13.132;2023-04-24T10:35:44;1.00;;;0.70;;
7158;SDS011;63175;52.374;13.132;2023-04-24T10:38:14;1.13;;;0.60;;
7158;SDS011;63175;52.374;13.132;2023-04-24T10:40:44;5.03;;;0.70;;
7158;SDS011;63175;52.374;13.132;2023-04-24T10:43:13;1.13;;;0.80;;
7158;SDS011;63175;52.374;13.132;2023-04-24T10:45:59;2.33;;;0.80;;
7158;SDS011;63175;52.374;13.132;2023-04-24T10:48:27;0.93;;;0.80;;
7158;SDS011;63175;52.374;13.132;2023-04-24T10:50:55;1.13;;;0.67;;
7158;SDS011;63175;52.374;13.132;2023-04-24T10:53:22;8.70;;;0.80;;
7158;SDS011;63175;52.374;13.132;2023-04-24T10:55:52;1.17;;;0.70;;
7158;SDS011;63175;52.374;13.132;2023-04-24T10:58:35;2.07;;;1.00;;
7158;SDS011;63175;52.374;13.132;2023-04-24T11:01:05;0.90;;;0.77;;
7158;SDS011;63175;52.374;13.132;2023-04-24T11:03:33;0.87;;;0.60;;
7158;SDS011;63175;52.374;13.132;2023-04-24T11:06:01;2.90;;;0.70;;
7158;SDS011;63175;52.374;13.132;2023-04-24T11:08:30;1.73;;;0.67;;
7158;SDS011;63175;52.374;13.132;2023-04-24T11:11:02;1.20;;;0.47;;
7158;SDS011;63175;52.374;13.132;2023-04-24T11:16:38;0.80;;;0.57;;
7158;SDS011;63175;52.374;13.132;2023-04-24T11:19:09;0.60;;;0.50;;
7158;SDS011;63175;52.374;13.132;2023-04-24T11:21:46;0.60;;;0.60;;
7158;SDS011;63175;52.374;13.132;2023-04-24T11:24:24;0.60;;;0.50;;
7158;SDS011;63175;52.374;13.132;2023-04-24T11:26:53;1.60;;;0.63;;
7158;SDS011;63175;52.374;13.132;2023-04-24T11:29:23;0.60;;;0.40;;
7158;SDS011;63175;52.374;13.132;2023-04-24T11:32:14;2.20;;;0.80;;
7158;SDS011;63175;52.374;13.132;2023-04-24T11:34:45;1.37;;;0.70;;
7158;SDS011;63175;52.374;13.132;2023-04-24T11:37:13;1.20;;;0.57;;
7158;SDS011;63175;52.374;13.132;2023-04-24T11:39:40;1.90;;;0.60;;
7158;SDS011;63175;52.374;13.132;2023-04-24T11:42:07;2.30;;;0.80;;
7158;SDS011;63175;52.374;13.132;2023-04-24T11:44:36;3.60;;;0.60;;
7158;SDS011;63175;52.374;13.132;2023-04-24T11:47:04;2.23;;;0.70;;
7158;SDS011;63175;52.374;13.132;2023-04-24T11:49:32;1.57;;;0.57;;
7158;SDS011;63175;52.374;13.132;2023-04-24T11:51:59;1.00;;;0.57;;
7158;SDS011;63175;52.374;13.132;2023-04-24T11:54:26;1.03;;;0.67;;
7158;SDS011;63175;52.374;13.132;2023-04-24T11:56:53;1.73;;;0.60;;
7158;SDS011;63175;52.374;13.132;2023-04-24T11:59:21;0.70;;;0.50;;
7158;SDS011;63175;52.374;13.132;2023-04-24T12:01:49;1.67;;;0.50;;
7158;SDS011;63175;52.374;13.132;2023-04-24T12:04:16;0.90;;;0.60;;
7158;SDS011;63175;52.374;13.132;2023-04-24T12:06:59;3.13;;;0.73;;
7158;SDS011;63175;52.374;13.132;2023-04-24T12:09:26;2.93;;;0.50;;
7158;SDS011;63175;52.374;13.132;2023-04-24T12:11:53;1.67;;;0.60;;
7158;SDS011;63175;52.374;13.132;2023-04-24T12:14:21;1.30;;;0.50;;
7158;SDS011;63175;52.374;13.132;2023-04-24T12:16:50;1.87;;;0.70;;
7158;SDS011;63175;52.374;13.132;2023-04-24T12:19:17;2.40;;;0.70;;
7158;SDS011;63175;52.374;13.132;2023-04-24T12:21:58;3.53;;;0.90;;
7158;SDS011;63175;52.374;13.132;2023-04-24T12:24:26;0.60;;;0.57;;
7158;SDS011;63175;52.374;13.132;2023-04-24T12:26:52;0.70;;;0.53;;
7158;SDS011;63175;52.374;13.132;2023-04-24T12:29:19;5.77;;;0.67;;
7158;SDS011;63175;52.374;13.132;2023-04-24T12:31:46;1.80;;;0.83;;
7158;SDS011;63175;52.374;13.132;2023-04-24T12:34:18;1.03;;;0.53;;
7158;SDS011;63175;52.374;13.132;2023-04-24T12:36:46;7.53;;;1.00;;
7158;SDS011;63175;52.374;13.132;2023-04-24T12:39:16;1.83;;;0.50;;
7158;SDS011;63175;52.374;13.132;2023-04-24T12:41:51;0.70;;;0.70;;
7158;SDS011;63175;52.374;13.132;2023-04-24T12:44:28;0.90;;;0.60;;
7158;SDS011;63175;52.374;13.132;2023-04-24T12:46:56;0.60;;;0.50;;
7158;SDS011;63175;52.374;13.132;2023-04-24T12:49:24;0.70;;;0.57;;
7158;SDS011;63175;52.374;13.132;2023-04-24T12:51:51;0.50;;;0.40;;
7158;SDS011;63175;52.374;13.132;2023-04-24T12:54:18;1.00;;;0.60;;
7158;SDS011;63175;52.374;13.132;2023-04-24T12:56:45;0.67;;;0.60;;
7158;SDS011;63175;52.374;13.132;2023-04-24T12:59:11;0.60;;;0.50;;
7158;SDS011;63175;52.374;13.132;2023-04-24T13:01:38;0.93;;;0.50;;
7158;SDS011;63175;52.374;13.132;2023-04-24T13:04:05;0.63;;;0.60;;
7158;SDS011;63175;52.374;13.132;2023-04-24T13:06:33;0.70;;;0.50;;
7158;SDS011;63175;52.374;13.132;2023-04-24T13:09:00;2.50;;;0.60;;
7158;SDS011;63175;52.374;13.132;2023-04-24T13:11:28;3.07;;;0.67;;
7158;SDS011;63175;52.374;13.132;2023-04-24T13:13:55;0.70;;;0.60;;
7158;SDS011;63175;52.374;13.132;2023-04-24T13:16:22;2.30;;;0.50;;
7158;SDS011;63175;52.374;13.132;2023-04-24T13:18:49;2.10;;;0.60;;
7158;SDS011;63175;52.374;13.132;2023-04-24T13:21:15;1.23;;;0.90;;
7158;SDS011;63175;52.374;13.132;2023-04-24T13:23:44;1.83;;;0.70;;
7158;SDS011;63175;52.374;13.132;2023-04-24T13:26:10;12.93;;;0.80;;
7158;SDS011;63175;52.374;13.132;2023-04-24T13:28:37;0.73;;;0.50;;
7158;SDS011;63175;52.374;13.132;2023-04-24T13:31:04;0.87;;;0.60;;
7158;SDS011;63175;52.374;13.132;2023-04-24T13:33:31;0.80;;;0.60;;
7158;SDS011;63175;52.374;13.132;2023-04-24T13:35:58;0.70;;;0.60;;
7158;SDS011;63175;52.374;13.132;2023-04-24T13:38:25;2.50;;;0.70;;
7158;SDS011;63175;52.374;13.132;2023-04-24T13:40:53;3.63;;;0.60;;
7158;SDS011;63175;52.374;13.132;2023-04-24T13:43:21;1.23;;;0.83;;
7158;SDS011;63175;52.374;13.132;2023-04-24T13:45:47;1.20;;;0.77;;
7158;SDS011;63175;52.374;13.132;2023-04-24T13:48:14;0.83;;;0.70;;
7158;SDS011;63175;52.374;13.132;2023-04-24T13:50:41;3.63;;;0.73;;
7158;SDS011;63175;52.374;13.132;2023-04-24T13:53:09;1.20;;;0.60;;
7158;SDS011;63175;52.374;13.132;2023-04-24T13:55:36;0.67;;;0.60;;
7158;SDS011;63175;52.374;13.132;2023-04-24T13:58:05;3.23;;;0.87;;
7158;SDS011;63175;52.374;13.132;2023-04-24T14:00:32;0.90;;;0.77;;
7158;SDS011;63175;52.374;13.132;2023-04-24T14:02:59;0.70;;;0.70;;
7158;SDS011;63175;52.374;13.132;2023-04-24T14:05:26;0.90;;;0.60;;
7158;SDS011;63175;52.374;13.132;2023-04-24T14:07:53;0.77;;;0.60;;
7158;SDS011;63175;52.374;13.132;2023-04-24T14:10:20;4.83;;;0.90;;
7158;SDS011;63175;52.374;13.132;2023-04-24T14:12:47;1.00;;;0.73;;
7158;SDS011;63175;52.374;13.132;2023-04-24T14:15:15;2.10;;;0.80;;
7158;SDS011;63175;52.374;13.132;2023-04-24T14:17:42;0.80;;;0.70;;
7158;SDS011;63175;52.374;13.132;2023-04-24T14:20:09;1.17;;;0.70;;
7158;SDS011;63175;52.374;13.132;2023-04-24T14:22:37;0.60;;;0.60;;
7158;SDS011;63175;52.374;13.132;2023-04-24T14:25:05;1.07;;;0.70;;
7158;SDS011;63175;52.374;13.132;2023-04-24T14:27:32;0.70;;;0.57;;
7158;SDS011;63175;52.374;13.132;2023-04-24T14:29:59;0.90;;;0.60;;
7158;SDS011;63175;52.374;13.132;2023-04-24T14:32:28;2.63;;;0.80;;
7158;SDS011;63175;52.374;13.132;2023-04-24T14:34:54;2.27;;;1.17;;
7158;SDS011;63175;52.374;13.132;2023-04-24T14:37:21;6.23;;;0.80;;
7158;SDS011;63175;52.374;13.132;2023-04-24T14:39:48;2.20;;;0.83;;
7158;SDS011;63175;52.374;13.132;2023-04-24T14:42:15;3.13;;;0.97;;
7158;SDS011;63175;52.374;13.132;2023-04-24T14:44:42;0.70;;;0.67;;
7158;SDS011;63175;52.374;13.132;2023-04-24T14:47:09;3.03;;;0.77;;
7158;SDS011;63175;52.374;13.132;2023-04-24T14:49:37;0.67;;;0.67;;
7158;SDS011;63175;52.374;13.132;2023-04-24T14:52:04;2.73;;;1.20;;
7158;SDS011;63175;52.374;13.132;2023-04-24T14:54:31;2.83;;;0.90;;
7158;SDS011;63175;52.374;13.132;2023-04-24T14:56:58;1.70;;;1.07;;
7158;SDS011;63175;52.374;13.132;2023-04-24T14:59:26;0.80;;;0.70;;